createdAt,value
2023-08-24T00:00:22.267Z,21.86
2023-08-24T00:05:24.841Z,21.68
2023-08-24T00:10:27.707Z,21.66
2023-08-24T00:15:31.094Z,21.63
2023-08-24T00:20:34.588Z,21.57
2023-08-24T00:25:37.279Z,21.51
2023-08-24T00:30:39.955Z,21.57
2023-08-24T00:35:42.216Z,21.67
2023-08-24T00:40:45.084Z,21.39
2023-08-24T00:45:47.797Z,21.02
2023-08-24T00:50:52.366Z,21.14
2023-08-24T00:55:57.102Z,21.31
2023-08-24T01:01:01.241Z,21.19
2023-08-24T01:06:03.483Z,20.60
2023-08-24T01:11:24.449Z,20.78
2023-08-24T01:16:30.897Z,20.64
2023-08-24T01:21:33.367Z,20.74
2023-08-24T01:26:37.276Z,20.34
2023-08-24T01:31:40.028Z,20.34
2023-08-24T01:36:42.825Z,20.48
2023-08-24T01:41:51.306Z,20.48
2023-08-24T01:46:54.510Z,20.32
2023-08-24T01:51:58.970Z,20.01
2023-08-24T01:57:01.811Z,20.00
2023-08-24T02:02:04.510Z,19.93
2023-08-24T02:07:06.718Z,20.15
2023-08-24T02:12:09.457Z,20.10
2023-08-24T02:17:12.153Z,19.87
2023-08-24T02:22:14.921Z,20.11
2023-08-24T02:27:17.644Z,20.47
2023-08-24T02:32:19.979Z,20.59
2023-08-24T02:37:23.010Z,20.49
2023-08-24T02:42:25.651Z,20.20
2023-08-24T02:47:28.713Z,20.54
2023-08-24T02:52:31.423Z,20.45
2023-08-24T02:57:34.083Z,20.15
2023-08-24T03:02:37.940Z,20.42
2023-08-24T03:07:40.555Z,20.46
2023-08-24T03:12:43.255Z,20.32
2023-08-24T03:17:46.123Z,20.36
2023-08-24T03:22:48.937Z,20.13
2023-08-24T03:27:51.957Z,20.37
2023-08-24T03:32:55.034Z,20.34
2023-08-24T03:37:58.056Z,20.08
2023-08-24T03:43:03.877Z,20.00
2023-08-24T03:48:06.878Z,20.15
2023-08-24T03:53:09.726Z,20.14
2023-08-24T03:58:12.488Z,19.91
2023-08-24T04:03:15.047Z,19.73
2023-08-24T04:08:19.318Z,19.97
2023-08-24T04:13:22.320Z,20.15
2023-08-24T04:18:25.043Z,20.32
2023-08-24T04:23:28.179Z,20.26
2023-08-24T04:28:30.894Z,20.44
2023-08-24T04:33:33.535Z,20.25
2023-08-24T04:38:36.180Z,20.60
2023-08-24T04:43:38.902Z,20.61
2023-08-24T04:48:41.003Z,20.78
2023-08-24T04:53:43.712Z,20.85
2023-08-24T04:58:59.664Z,20.70
2023-08-24T05:04:02.136Z,20.72
2023-08-24T05:09:04.465Z,20.56
2023-08-24T05:14:07.038Z,20.40
2023-08-24T05:19:09.762Z,20.66
2023-08-24T05:24:12.446Z,20.84
2023-08-24T05:29:14.996Z,21.02
2023-08-24T05:34:17.654Z,20.83
2023-08-24T05:39:20.246Z,21.16
2023-08-24T05:44:23.042Z,19.77
2023-08-24T05:49:25.847Z,19.29
2023-08-24T05:54:28.487Z,19.18
2023-08-24T05:59:31.200Z,19.19
2023-08-24T06:04:33.771Z,19.07
2023-08-24T06:09:36.499Z,19.18
2023-08-24T06:14:39.206Z,19.21
2023-08-24T06:19:41.658Z,19.30
2023-08-24T06:24:44.227Z,19.44
2023-08-24T06:29:46.897Z,19.48
2023-08-24T06:34:49.626Z,19.58
2023-08-24T06:39:52.467Z,19.73
2023-08-24T06:44:54.732Z,19.91
2023-08-24T06:49:57.406Z,20.37
2023-08-24T06:55:01.142Z,21.34
2023-08-24T07:00:08.162Z,23.45
2023-08-24T07:05:11.178Z,25.06
2023-08-24T07:10:13.963Z,25.33
2023-08-24T07:15:16.510Z,24.12
2023-08-24T07:20:19.449Z,24.79
2023-08-24T07:25:23.014Z,26.41
2023-08-24T07:30:33.900Z,26.09
2023-08-24T07:35:37.317Z,26.88
2023-08-24T07:40:39.552Z,28.31
2023-08-24T07:45:43.052Z,29.39
2023-08-24T07:50:45.764Z,29.73
2023-08-24T07:55:48.854Z,30.60
2023-08-24T08:00:52.806Z,31.08
2023-08-24T08:05:56.101Z,31.41
2023-08-24T08:11:03.395Z,31.68
2023-08-24T08:16:07.924Z,32.01
2023-08-24T08:21:21.902Z,31.77
2023-08-24T08:26:25.184Z,32.19
2023-08-24T08:31:31.269Z,32.81
2023-08-24T08:36:34.408Z,32.34
2023-08-24T08:41:45.069Z,32.28
2023-08-24T08:46:48.866Z,31.18
2023-08-24T08:51:53.123Z,31.54
2023-08-24T08:56:56.101Z,31.94
2023-08-24T09:02:02.090Z,31.89
2023-08-24T09:07:11.806Z,32.56
2023-08-24T09:12:14.856Z,33.34
2023-08-24T09:17:22.562Z,34.28
2023-08-24T09:22:25.348Z,35.22
2023-08-24T09:27:27.621Z,35.32
2023-08-24T09:32:33.362Z,36.43
2023-08-24T09:37:36.847Z,36.15
2023-08-24T09:42:45.120Z,36.49
2023-08-24T09:47:54.093Z,37.55
2023-08-24T09:52:59.187Z,38.02
2023-08-24T09:58:05.206Z,37.59
2023-08-24T10:03:09.796Z,36.86
2023-08-24T10:08:14.658Z,37.76
2023-08-24T10:13:31.369Z,37.87
2023-08-24T10:18:35.067Z,38.85
2023-08-24T10:23:39.981Z,38.81
2023-08-24T10:28:43.157Z,37.22
2023-08-24T10:33:48.243Z,37.26
2023-08-24T10:38:50.882Z,38.27
2023-08-24T10:43:53.519Z,38.15
2023-08-24T10:48:59.913Z,38.71
2023-08-24T10:54:07.486Z,39.39
2023-08-24T10:59:19.411Z,37.70
2023-08-24T11:04:22.352Z,37.76
2023-08-24T11:09:26.240Z,36.76
2023-08-24T11:14:34.029Z,38.15
2023-08-24T11:19:39.394Z,37.92
2023-08-24T11:24:42.380Z,37.43
2023-08-24T11:29:45.111Z,36.04
2023-08-24T11:34:47.786Z,34.65
2023-08-24T11:39:50.595Z,33.16
2023-08-24T11:44:53.373Z,32.05
2023-08-24T11:49:56.080Z,29.51
2023-08-24T11:55:00.381Z,23.22
2023-08-24T12:00:04.853Z,22.10
2023-08-24T12:05:09.080Z,21.90
2023-08-24T12:10:11.744Z,21.25
2023-08-24T12:15:21.974Z,21.14
2023-08-24T12:20:24.438Z,21.39
2023-08-24T12:25:26.859Z,21.03
2023-08-24T12:30:29.534Z,21.13
2023-08-24T12:35:31.873Z,21.36
2023-08-24T12:40:34.482Z,21.62
2023-08-24T12:45:39.109Z,21.82
2023-08-24T12:50:41.947Z,22.17
2023-08-24T12:55:44.593Z,22.60
2023-08-24T13:00:48.467Z,22.90
2023-08-24T13:05:51.262Z,22.88
2023-08-24T13:10:53.677Z,23.27
2023-08-24T13:15:57.947Z,23.33
2023-08-24T13:21:01.970Z,23.45
2023-08-24T13:26:04.622Z,23.66
2023-08-24T13:31:06.814Z,23.80
2023-08-24T13:36:09.536Z,23.78
2023-08-24T13:41:12.093Z,23.89
2023-08-24T13:46:14.830Z,24.06
2023-08-24T13:51:18.188Z,24.42
2023-08-24T13:56:23.928Z,24.55
2023-08-24T14:01:26.697Z,24.66
2023-08-24T14:06:34.865Z,25.01
2023-08-24T14:11:37.160Z,25.30
2023-08-24T14:16:40.007Z,25.59
2023-08-24T14:21:45.380Z,25.40
2023-08-24T14:26:47.842Z,25.20
2023-08-24T14:31:50.533Z,25.57
2023-08-24T14:36:53.178Z,26.19
2023-08-24T14:41:55.957Z,26.20
2023-08-24T14:46:58.715Z,26.40
2023-08-24T14:52:01.509Z,26.46
2023-08-24T14:57:05.163Z,26.68
2023-08-24T15:02:07.961Z,26.59
2023-08-24T15:07:10.581Z,26.53
2023-08-24T15:12:13.227Z,26.35
2023-08-24T15:17:15.800Z,26.17
2023-08-24T15:22:17.939Z,26.26
2023-08-24T15:27:20.644Z,26.05
2023-08-24T15:32:23.512Z,25.97
2023-08-24T15:37:26.220Z,25.86
2023-08-24T15:42:28.817Z,25.59
2023-08-24T15:47:31.676Z,25.36
2023-08-24T15:52:34.332Z,24.80
2023-08-24T15:57:36.643Z,24.50
2023-08-24T16:02:40.972Z,23.97
2023-08-24T16:07:43.131Z,22.49
2023-08-24T16:12:45.946Z,21.51
2023-08-24T16:17:48.784Z,21.02
2023-08-24T16:22:51.381Z,20.66
2023-08-24T16:27:54.649Z,20.67
2023-08-24T16:32:57.611Z,20.61
2023-08-24T16:38:00.277Z,20.55
2023-08-24T16:43:03.463Z,20.74
2023-08-24T16:48:06.447Z,20.78
2023-08-24T16:53:09.227Z,20.73
2023-08-24T16:58:11.896Z,20.54
2023-08-24T17:03:14.546Z,20.41
2023-08-24T17:08:17.207Z,20.41
2023-08-24T17:13:19.573Z,20.49
2023-08-24T17:18:22.265Z,20.36
2023-08-24T17:23:24.883Z,20.57
2023-08-24T17:28:28.925Z,20.36
2023-08-24T17:33:32.657Z,20.60
2023-08-24T17:38:35.887Z,20.47
2023-08-24T17:43:40.343Z,20.54
2023-08-24T17:48:43.260Z,20.50
2023-08-24T17:53:45.972Z,20.59
2023-08-24T17:58:48.622Z,20.45
2023-08-24T18:03:51.282Z,20.53
2023-08-24T18:08:54.834Z,20.38
2023-08-24T18:13:59.118Z,20.42
2023-08-24T18:19:01.811Z,20.22
2023-08-24T18:24:05.576Z,20.30
2023-08-24T18:29:08.335Z,20.17
2023-08-24T18:34:11.039Z,19.95
2023-08-24T18:39:14.939Z,19.77
2023-08-24T18:44:19.131Z,19.79
2023-08-24T18:49:22.167Z,19.66
2023-08-24T18:54:25.640Z,19.57
2023-08-24T18:59:28.328Z,19.29
2023-08-24T19:04:30.645Z,19.64
2023-08-24T19:09:33.272Z,19.32
2023-08-24T19:14:38.498Z,19.41
2023-08-24T19:19:41.205Z,19.46
2023-08-24T19:24:43.824Z,19.40
2023-08-24T19:29:46.565Z,19.24
2023-08-24T19:34:49.280Z,19.38
2023-08-24T19:39:52.073Z,19.29
2023-08-24T19:44:54.339Z,19.35
2023-08-24T19:49:57.848Z,19.26
2023-08-24T19:55:00.458Z,19.38
2023-08-24T20:00:03.325Z,19.16
2023-08-24T20:05:06.730Z,19.11
2023-08-24T20:10:09.543Z,19.05
2023-08-24T20:15:12.908Z,18.93
2023-08-24T20:20:18.702Z,18.66
2023-08-24T20:25:21.573Z,18.74
2023-08-24T20:30:24.729Z,18.29
2023-08-24T20:35:27.426Z,18.52
2023-08-24T20:40:29.779Z,18.57
2023-08-24T20:45:32.579Z,18.17
2023-08-24T20:50:35.424Z,18.17
2023-08-24T20:55:38.392Z,18.17
2023-08-24T21:00:41.626Z,17.98
2023-08-24T21:05:44.776Z,17.80
2023-08-24T21:10:47.233Z,17.59
2023-08-24T21:15:49.384Z,17.84
2023-08-24T21:20:58.165Z,17.91
2023-08-24T21:26:00.365Z,18.14
2023-08-24T21:31:04.183Z,18.06
2023-08-24T21:36:07.291Z,18.03
2023-08-24T21:41:10.564Z,18.06
2023-08-24T21:46:13.293Z,18.03
2023-08-24T21:51:16.132Z,18.23
2023-08-24T21:56:18.901Z,18.10
2023-08-24T22:01:21.934Z,18.14
2023-08-24T22:06:24.724Z,18.17
2023-08-24T22:11:27.455Z,18.12
2023-08-24T22:16:30.857Z,17.98
2023-08-24T22:21:33.471Z,18.05
2023-08-24T22:26:36.614Z,18.08
2023-08-24T22:31:40.172Z,17.81
2023-08-24T22:36:42.974Z,17.68
2023-08-24T22:41:45.815Z,17.59
2023-08-24T22:46:48.460Z,17.88
2023-08-24T22:51:51.249Z,17.69
2023-08-24T22:56:53.807Z,17.59
2023-08-24T23:01:56.433Z,17.53
2023-08-24T23:07:05.634Z,17.72
2023-08-24T23:12:08.102Z,17.48
2023-08-24T23:17:11.149Z,17.51
2023-08-24T23:22:14.004Z,17.52
2023-08-24T23:27:16.771Z,17.49
2023-08-24T23:32:19.385Z,17.60
2023-08-24T23:37:23.205Z,17.53
2023-08-24T23:42:25.472Z,17.43
2023-08-24T23:47:28.299Z,17.18
2023-08-24T23:52:31.972Z,16.94
2023-08-24T23:57:34.625Z,17.17
